Terminal Aerodrome Forecast
Issued by NWS Quad Cities IA IL

Home | Current Version | Previous Version | Text Only | Print | Product List | Glossary On
Versions: 1 2 3 4 5 6 7 8 9 10 11 12 13 14 15 16 17 18
000
FTUS43 KDVN 261700
TAFMLI
TAF
KMLI 261720Z 2618/2718 31015G20KT P6SM SCT035
     FM270000 32010KT P6SM SCT035
     FM270400 33008KT P6SM BKN035
     FM271200 36009KT P6SM SCT035=

USA.gov is the U.S. government's official web portal to all federal, state and local government web resources and services.